createdAt,value
2019-02-16T00:00:45.426Z,14.87
2019-02-16T00:01:49.515Z,16.00
2019-02-16T00:02:53.612Z,15.58
2019-02-16T00:03:57.545Z,16.62
2019-02-16T00:05:01.675Z,15.25
2019-02-16T00:06:05.842Z,15.90
2019-02-16T00:07:09.699Z,16.27
2019-02-16T00:08:13.591Z,16.50
2019-02-16T00:09:17.490Z,15.95
2019-02-16T00:10:21.926Z,16.90
2019-02-16T00:11:26.132Z,16.80
2019-02-16T00:12:30.339Z,16.73
2019-02-16T00:13:34.663Z,14.83
2019-02-16T00:14:38.803Z,16.57
2019-02-16T00:15:42.612Z,16.50
2019-02-16T00:16:46.600Z,16.93
2019-02-16T00:17:50.483Z,18.55
2019-02-16T00:18:54.382Z,18.77
2019-02-16T00:19:58.448Z,18.85
2019-02-16T00:21:04.257Z,19.92
2019-02-16T00:22:08.957Z,18.57
2019-02-16T00:23:13.239Z,18.35
2019-02-16T00:24:17.114Z,17.52
2019-02-16T00:25:21.238Z,16.45
2019-02-16T00:26:25.047Z,17.17
2019-02-16T00:27:28.859Z,13.22
2019-02-16T00:28:32.729Z,10.78
2019-02-16T00:29:36.799Z,15.55
2019-02-16T00:30:41.139Z,16.10
2019-02-16T00:31:45.326Z,17.02
2019-02-16T00:32:50.107Z,15.93
2019-02-16T00:33:54.497Z,12.68
2019-02-16T00:34:58.629Z,17.55
2019-02-16T00:36:02.438Z,18.05
2019-02-16T00:37:06.315Z,18.27
2019-02-16T00:38:10.486Z,19.95
2019-02-16T00:39:14.302Z,19.27
2019-02-16T00:40:18.188Z,20.27
2019-02-16T00:41:22.357Z,19.65
2019-02-16T00:42:26.307Z,20.20
2019-02-16T00:43:30.683Z,20.02
2019-02-16T00:44:34.503Z,19.42
2019-02-16T00:45:38.379Z,20.02
2019-02-16T00:46:42.184Z,18.65
2019-02-16T00:47:46.232Z,17.77
2019-02-16T00:48:50.786Z,18.37
2019-02-16T00:49:54.605Z,18.87
2019-02-16T00:50:58.412Z,18.32
2019-02-16T00:52:02.221Z,17.85
2019-02-16T00:53:06.104Z,16.48
2019-02-16T00:54:09.907Z,17.57
2019-02-16T00:55:13.987Z,16.85
2019-02-16T00:56:17.800Z,17.50
2019-02-16T00:57:21.875Z,18.17
2019-02-16T00:58:25.926Z,17.48
2019-02-16T00:59:30.003Z,17.37
2019-02-16T01:00:33.898Z,18.05
2019-02-16T01:01:37.762Z,17.32
2019-02-16T01:02:42.059Z,16.30
2019-02-16T01:03:46.127Z,17.62
2019-02-16T01:04:50.275Z,17.23
2019-02-16T01:05:54.088Z,17.12
2019-02-16T01:06:58.277Z,17.77
2019-02-16T01:08:02.756Z,16.95
2019-02-16T01:09:06.987Z,16.60
2019-02-16T01:10:10.934Z,17.00
2019-02-16T01:11:15.128Z,17.07
2019-02-16T01:12:18.952Z,17.95
2019-02-16T01:13:22.770Z,17.52
2019-02-16T01:14:27.101Z,15.95
2019-02-16T01:15:31.253Z,17.07
2019-02-16T01:16:35.076Z,17.60
2019-02-16T01:17:38.890Z,12.88
2019-02-16T01:18:42.706Z,14.85
2019-02-16T01:19:46.594Z,15.58
2019-02-16T01:20:50.425Z,14.90
2019-02-16T01:21:54.311Z,15.40
2019-02-16T01:22:58.125Z,14.63
2019-02-16T01:24:02.322Z,13.22
2019-02-16T01:25:07.023Z,12.80
2019-02-16T01:26:11.216Z,14.95
2019-02-16T01:27:15.421Z,15.83
2019-02-16T01:28:19.524Z,15.13
2019-02-16T01:29:23.409Z,14.68
2019-02-16T01:30:27.235Z,14.10
2019-02-16T01:31:31.048Z,15.80
2019-02-16T01:32:34.923Z,15.75
2019-02-16T01:33:38.991Z,16.55
2019-02-16T01:34:43.118Z,16.37
2019-02-16T01:35:47.323Z,17.15
2019-02-16T01:36:51.216Z,14.83
2019-02-16T01:37:55.031Z,12.70
2019-02-16T01:38:58.849Z,14.13
2019-02-16T01:40:02.669Z,15.50
2019-02-16T01:41:06.819Z,15.65
2019-02-16T01:42:11.024Z,15.23
2019-02-16T01:43:14.839Z,16.42
2019-02-16T01:47:13.428Z,13.03
2019-02-16T01:48:17.634Z,16.15
2019-02-16T01:49:21.834Z,15.95
2019-02-16T01:50:26.058Z,15.13
2019-02-16T01:51:32.213Z,11.90
2019-02-16T01:52:36.087Z,15.93
2019-02-16T01:53:40.335Z,15.95
2019-02-16T01:54:44.511Z,16.37
2019-02-16T01:55:48.630Z,14.98
2019-02-16T01:56:53.020Z,12.55
2019-02-16T01:57:57.382Z,13.40
2019-02-16T01:59:01.314Z,15.50
2019-02-16T02:00:05.698Z,14.05
2019-02-16T02:01:10.150Z,15.32
2019-02-16T02:02:14.331Z,14.53
2019-02-16T02:03:18.334Z,14.00
2019-02-16T02:04:22.187Z,14.75
2019-02-16T02:05:26.049Z,13.58
2019-02-16T02:06:29.921Z,14.10
2019-02-16T02:07:34.159Z,11.95
2019-02-16T02:08:38.169Z,13.70
2019-02-16T02:09:42.187Z,16.05
2019-02-16T02:10:46.121Z,15.13
2019-02-16T02:11:50.388Z,13.20
2019-02-16T02:12:54.322Z,15.80
2019-02-16T02:13:58.256Z,16.52
2019-02-16T02:15:02.639Z,12.80
2019-02-16T02:16:06.491Z,15.65
2019-02-16T02:17:10.439Z,12.65
2019-02-16T02:18:14.997Z,13.15
2019-02-16T02:19:18.926Z,14.03
2019-02-16T02:20:24.824Z,15.63
2019-02-16T02:21:29.041Z,15.45
2019-02-16T02:22:32.970Z,16.10
2019-02-16T02:23:37.156Z,16.82
2019-02-16T02:24:41.644Z,17.05
2019-02-16T02:25:45.569Z,15.98
2019-02-16T02:26:49.450Z,14.18
2019-02-16T02:27:53.307Z,13.85
2019-02-16T02:28:57.312Z,15.30
2019-02-16T02:30:01.876Z,17.40
2019-02-16T02:31:05.790Z,17.12
2019-02-16T02:32:10.017Z,17.17
2019-02-16T02:33:14.271Z,17.52
2019-02-16T02:34:18.887Z,15.03
2019-02-16T02:35:22.888Z,15.63
2019-02-16T02:36:27.197Z,15.10
2019-02-16T02:37:31.076Z,15.43
2019-02-16T02:38:35.511Z,16.75
2019-02-16T02:39:39.443Z,15.65
2019-02-16T02:40:43.706Z,14.55
2019-02-16T02:41:47.917Z,14.93
2019-02-16T02:42:52.125Z,15.70
2019-02-16T02:43:56.419Z,15.98
2019-02-16T02:45:00.429Z,16.42
2019-02-16T02:46:04.668Z,16.73
2019-02-16T02:47:08.595Z,16.95
2019-02-16T02:48:12.544Z,16.48
2019-02-16T02:49:16.802Z,16.82
2019-02-16T02:50:20.989Z,19.52
2019-02-16T02:51:24.983Z,18.73
2019-02-16T02:52:29.256Z,20.27
2019-02-16T02:53:33.268Z,19.92
2019-02-16T02:54:37.796Z,19.85
2019-02-16T02:55:41.725Z,19.05
2019-02-16T02:56:45.909Z,17.73
2019-02-16T02:57:50.400Z,17.95
2019-02-16T02:58:55.000Z,19.02
2019-02-16T02:59:59.259Z,18.62
2019-02-16T03:01:03.511Z,19.25
2019-02-16T03:02:07.451Z,18.25
2019-02-16T03:03:11.623Z,18.75
2019-02-16T03:04:15.628Z,17.82
2019-02-16T03:05:19.557Z,17.70
2019-02-16T03:06:23.488Z,18.73
2019-02-16T03:07:27.667Z,17.45
2019-02-16T03:08:32.191Z,19.05
2019-02-16T03:09:36.195Z,17.27
2019-02-16T03:10:40.734Z,17.60
2019-02-16T03:11:44.751Z,16.90
2019-02-16T03:12:49.199Z,17.87
2019-02-16T03:13:53.141Z,17.20
2019-02-16T03:14:57.307Z,18.27
2019-02-16T03:16:01.487Z,17.23
2019-02-16T03:17:05.748Z,17.67
2019-02-16T03:18:09.988Z,18.00
2019-02-16T03:19:13.916Z,18.77
2019-02-16T03:20:18.191Z,18.92
2019-02-16T03:21:22.200Z,18.50
2019-02-16T03:22:46.728Z,17.48
2019-02-16T03:23:51.287Z,18.30
2019-02-16T03:24:56.461Z,17.57
2019-02-16T03:26:33.512Z,18.00
2019-02-16T03:28:23.572Z,18.65
2019-02-16T03:29:34.843Z,21.30
2019-02-16T03:31:23.811Z,20.60
2019-02-16T03:33:03.701Z,17.85
2019-02-16T03:34:22.042Z,17.92
2019-02-16T03:36:19.096Z,17.85
2019-02-16T03:37:50.877Z,17.25
2019-02-16T03:39:08.339Z,15.83
2019-02-16T03:40:12.393Z,17.40
2019-02-16T03:41:16.620Z,17.17
2019-02-16T03:42:21.319Z,15.25
2019-02-16T03:43:25.687Z,17.98
2019-02-16T03:44:30.739Z,17.70
2019-02-16T03:45:34.782Z,19.48
2019-02-16T03:46:39.062Z,12.33
2019-02-16T03:47:43.414Z,16.30
2019-02-16T03:48:47.274Z,14.68
2019-02-16T03:49:51.576Z,14.50
2019-02-16T03:50:55.947Z,17.32
2019-02-16T03:52:00.298Z,16.37
2019-02-16T03:53:04.240Z,18.62
2019-02-16T03:54:08.409Z,16.62
2019-02-16T03:55:12.712Z,15.32
2019-02-16T03:56:16.976Z,16.25
2019-02-16T03:57:20.922Z,17.57
2019-02-16T03:58:25.426Z,18.50
2019-02-16T03:59:29.558Z,15.93
2019-02-16T04:00:33.797Z,18.37
2019-02-16T04:01:38.007Z,18.05
2019-02-16T04:02:42.372Z,18.57
2019-02-16T04:03:46.559Z,16.35
2019-02-16T04:04:50.943Z,18.75
2019-02-16T04:05:55.042Z,18.02
2019-02-16T04:06:58.976Z,16.73
2019-02-16T04:08:02.904Z,16.02
2019-02-16T04:09:07.488Z,18.10
2019-02-16T04:10:12.260Z,17.00
2019-02-16T04:11:16.692Z,14.05
2019-02-16T04:12:20.626Z,18.55
2019-02-16T04:13:24.494Z,17.70
2019-02-16T04:14:28.668Z,15.90
2019-02-16T04:15:32.692Z,17.95
2019-02-16T04:16:36.785Z,13.22
2019-02-16T04:17:40.878Z,16.95
2019-02-16T04:18:44.884Z,18.32
2019-02-16T04:19:48.811Z,19.15
2019-02-16T04:20:52.757Z,18.73
2019-02-16T04:21:56.928Z,18.30
2019-02-16T04:23:01.104Z,17.70
2019-02-16T04:24:05.362Z,18.98
2019-02-16T04:25:09.383Z,19.07
2019-02-16T04:26:13.556Z,19.85
2019-02-16T04:27:17.740Z,14.50
2019-02-16T04:28:21.681Z,17.67
2019-02-16T04:29:25.796Z,14.28
2019-02-16T04:30:29.668Z,18.40
2019-02-16T04:31:33.614Z,18.98
2019-02-16T04:32:37.727Z,16.93
2019-02-16T04:33:41.898Z,18.15
2019-02-16T04:34:45.759Z,17.25
2019-02-16T04:35:49.775Z,18.07
2019-02-16T04:36:53.785Z,13.55
2019-02-16T04:37:57.645Z,18.00
2019-02-16T04:39:01.587Z,12.00
2019-02-16T04:40:05.886Z,18.90
2019-02-16T04:41:09.907Z,12.55
2019-02-16T04:42:14.134Z,15.53
2019-02-16T04:43:18.582Z,17.10
2019-02-16T04:44:22.897Z,17.05
2019-02-16T04:45:27.410Z,17.82
2019-02-16T04:46:32.124Z,17.85
2019-02-16T04:47:36.839Z,15.98
2019-02-16T04:48:41.147Z,13.72
2019-02-16T04:49:45.357Z,13.80
2019-02-16T04:50:49.665Z,15.00
2019-02-16T04:51:53.602Z,14.33
2019-02-16T04:52:57.783Z,13.75
2019-02-16T04:54:01.649Z,17.30
2019-02-16T04:55:06.316Z,16.97
2019-02-16T04:56:10.587Z,18.67
2019-02-16T04:57:14.896Z,16.25
2019-02-16T04:58:19.103Z,17.20
2019-02-16T04:59:23.337Z,19.32
2019-02-16T05:00:27.255Z,19.07
2019-02-16T05:01:31.825Z,14.40
2019-02-16T05:02:35.693Z,15.80
2019-02-16T05:03:39.782Z,18.12
2019-02-16T05:04:43.718Z,19.17
2019-02-16T05:05:47.655Z,20.23
2019-02-16T05:06:51.631Z,19.52
2019-02-16T05:07:55.552Z,19.00
2019-02-16T05:08:59.537Z,21.07
2019-02-16T05:10:03.831Z,19.27
2019-02-16T05:11:08.063Z,19.75
2019-02-16T05:12:12.238Z,19.67
2019-02-16T05:13:16.639Z,14.73
2019-02-16T05:14:21.060Z,19.17
2019-02-16T05:15:25.676Z,19.15
2019-02-16T05:16:29.986Z,17.98
2019-02-16T05:17:34.003Z,16.65
2019-02-16T05:18:37.990Z,12.15
2019-02-16T05:19:42.202Z,13.78
2019-02-16T05:20:46.207Z,18.37
2019-02-16T05:21:50.279Z,15.05
2019-02-16T05:22:54.141Z,14.53
2019-02-16T05:23:58.369Z,18.23
2019-02-16T05:25:02.317Z,18.62
2019-02-16T05:26:06.226Z,18.73
2019-02-16T05:27:10.177Z,21.17
2019-02-16T05:28:14.376Z,20.80
2019-02-16T05:29:18.484Z,25.50
2019-02-16T05:30:22.507Z,22.75
2019-02-16T05:31:26.637Z,18.70
2019-02-16T05:32:31.006Z,20.72
2019-02-16T05:33:34.952Z,19.87
2019-02-16T05:34:39.227Z,19.95
2019-02-16T05:35:43.397Z,21.10
2019-02-16T05:36:48.126Z,22.25
2019-02-16T05:37:52.222Z,22.25
2019-02-16T05:38:56.409Z,43.08
2019-02-16T05:40:00.418Z,29.32
2019-02-16T05:41:04.414Z,28.92
2019-02-16T05:42:08.267Z,36.00
2019-02-16T05:43:12.712Z,35.05
2019-02-16T05:44:16.642Z,30.00
2019-02-16T05:45:20.568Z,33.83
2019-02-16T05:46:24.827Z,33.45
2019-02-16T05:47:29.252Z,33.13
2019-02-16T05:48:33.204Z,33.08
2019-02-16T05:49:37.904Z,32.60
2019-02-16T05:50:41.835Z,30.55
2019-02-16T05:51:46.000Z,26.33
2019-02-16T05:52:54.418Z,33.75
2019-02-16T05:53:56.049Z,32.65
2019-02-16T05:55:00.328Z,27.58
2019-02-16T05:56:04.982Z,26.52
2019-02-16T05:57:09.186Z,29.98
2019-02-16T05:58:13.550Z,20.37
2019-02-16T05:59:17.496Z,22.07
2019-02-16T06:00:25.185Z,28.20
2019-02-16T06:01:29.695Z,23.77
2019-02-16T06:02:34.003Z,26.97
2019-02-16T06:03:38.136Z,27.58
2019-02-16T06:04:42.347Z,23.22
2019-02-16T06:05:46.278Z,25.02
2019-02-16T06:06:50.308Z,24.90
2019-02-16T06:07:54.253Z,21.97
2019-02-16T06:08:58.231Z,23.35
2019-02-16T06:10:02.146Z,23.60
2019-02-16T06:11:06.418Z,24.32
2019-02-16T06:12:11.164Z,24.60
2019-02-16T06:13:15.330Z,25.27
2019-02-16T06:14:19.490Z,25.30
2019-02-16T06:15:23.574Z,22.25
2019-02-16T06:16:27.449Z,18.90
2019-02-16T06:17:31.818Z,26.17
2019-02-16T06:18:36.275Z,23.55
2019-02-16T06:19:40.479Z,27.10
2019-02-16T06:20:44.680Z,25.12
2019-02-16T06:21:48.995Z,26.87
2019-02-16T06:22:53.300Z,28.75
2019-02-16T06:23:57.912Z,30.08
2019-02-16T06:25:01.829Z,27.73
2019-02-16T06:26:05.937Z,30.17
2019-02-16T06:27:10.225Z,27.70
2019-02-16T06:28:14.427Z,30.25
2019-02-16T06:29:18.942Z,30.17
2019-02-16T06:30:23.147Z,29.63
2019-02-16T06:31:27.089Z,35.30
2019-02-16T06:32:31.240Z,30.97
2019-02-16T06:33:35.789Z,31.12
2019-02-16T06:34:40.116Z,31.35
2019-02-16T06:35:48.121Z,26.82
2019-02-16T06:36:52.578Z,26.17
2019-02-16T06:37:57.108Z,32.90
2019-02-16T06:39:01.311Z,36.05
2019-02-16T06:40:05.713Z,31.57
2019-02-16T06:41:09.651Z,33.75
2019-02-16T06:42:13.517Z,31.10
2019-02-16T06:43:17.466Z,29.35
2019-02-16T06:44:21.495Z,30.05
2019-02-16T06:45:25.512Z,28.67
2019-02-16T06:46:29.382Z,31.20
2019-02-16T06:47:33.414Z,34.75
2019-02-16T06:48:37.336Z,35.10
2019-02-16T06:49:41.660Z,34.98
2019-02-16T06:50:45.671Z,33.13
2019-02-16T06:51:50.063Z,31.80
2019-02-16T06:52:54.006Z,26.35
2019-02-16T06:53:57.946Z,28.40
2019-02-16T06:55:02.132Z,25.75
2019-02-16T06:56:20.050Z,27.60
2019-02-16T06:57:29.280Z,25.80
2019-02-16T06:58:33.491Z,25.20
2019-02-16T06:59:37.364Z,28.42
2019-02-16T07:00:41.591Z,27.73
2019-02-16T07:01:45.453Z,29.25
2019-02-16T07:02:49.821Z,26.60
2019-02-16T07:03:53.932Z,27.00
2019-02-16T07:04:58.386Z,33.25
2019-02-16T07:06:02.566Z,28.20
2019-02-16T07:07:07.495Z,32.13
2019-02-16T07:08:11.437Z,19.07
2019-02-16T07:09:15.359Z,22.15
2019-02-16T07:10:19.563Z,16.42
2019-02-16T07:11:24.068Z,22.93
2019-02-16T07:12:28.167Z,21.15
2019-02-16T07:13:32.282Z,17.90
2019-02-16T07:14:36.471Z,15.00
2019-02-16T07:15:40.494Z,21.45
2019-02-16T07:16:56.422Z,21.55
2019-02-16T07:18:26.003Z,23.52
2019-02-16T07:19:39.513Z,28.57
2019-02-16T07:20:43.889Z,17.20
2019-02-16T07:21:48.092Z,26.37
2019-02-16T07:22:51.951Z,25.35
2019-02-16T07:23:56.299Z,21.00
2019-02-16T07:25:00.571Z,18.15
2019-02-16T07:26:05.009Z,21.77
2019-02-16T07:27:09.242Z,18.95
2019-02-16T07:28:13.223Z,16.12
2019-02-16T07:29:17.232Z,20.90
2019-02-16T07:30:21.185Z,19.27
2019-02-16T07:31:25.540Z,13.62
2019-02-16T07:32:29.842Z,15.48
2019-02-16T07:33:33.778Z,18.52
2019-02-16T07:34:37.808Z,19.25
2019-02-16T07:35:41.755Z,15.60
2019-02-16T07:36:45.686Z,15.70
2019-02-16T07:37:49.568Z,14.58
2019-02-16T07:38:53.581Z,28.07
2019-02-16T07:39:58.051Z,17.40
2019-02-16T07:41:02.000Z,15.23
2019-02-16T07:42:06.015Z,18.52
2019-02-16T07:43:20.294Z,14.05
2019-02-16T07:44:43.299Z,19.17
2019-02-16T07:45:55.487Z,15.88
2019-02-16T07:47:10.054Z,7.17
2019-02-16T07:48:21.558Z,8.85
2019-02-16T07:49:30.971Z,14.47
2019-02-16T07:50:51.963Z,16.00
2019-02-16T07:52:05.870Z,15.75
2019-02-16T07:53:31.381Z,15.13
2019-02-16T07:54:46.297Z,12.70
2019-02-16T07:55:58.727Z,15.18
2019-02-16T07:57:07.503Z,20.50
2019-02-16T07:58:19.076Z,15.32
2019-02-16T07:59:34.515Z,16.95
2019-02-16T08:01:06.498Z,17.12
2019-02-16T08:02:29.664Z,17.80
2019-02-16T08:03:53.007Z,10.98
2019-02-16T08:05:19.266Z,16.93
2019-02-16T08:06:45.262Z,20.02
2019-02-16T08:07:58.955Z,20.45
2019-02-16T08:09:13.102Z,12.68
2019-02-16T08:10:41.115Z,24.45
2019-02-16T08:12:07.065Z,26.73
2019-02-16T08:13:33.434Z,24.87
2019-02-16T08:15:08.786Z,23.30
2019-02-16T08:16:18.471Z,26.02
2019-02-16T08:17:37.644Z,22.87
2019-02-16T08:19:07.450Z,22.82
2019-02-16T08:20:43.297Z,23.90
2019-02-16T08:21:57.762Z,20.23
2019-02-16T08:23:11.542Z,20.27
2019-02-16T08:24:49.910Z,22.93
2019-02-16T08:26:01.019Z,14.68
2019-02-16T08:27:13.565Z,19.23
2019-02-16T08:28:28.903Z,18.75
2019-02-16T08:29:40.711Z,19.15
2019-02-16T08:31:03.043Z,23.30
2019-02-16T08:32:22.474Z,22.82
2019-02-16T08:33:32.127Z,22.42
2019-02-16T08:34:46.022Z,20.88
2019-02-16T08:36:08.577Z,20.32
2019-02-16T08:37:50.207Z,21.05
2019-02-16T08:39:04.926Z,15.78
2019-02-16T08:40:34.327Z,18.70
2019-02-16T08:42:06.293Z,14.35
2019-02-16T08:43:18.374Z,17.00
2019-02-16T08:44:35.963Z,13.20
2019-02-16T08:45:49.415Z,11.22
2019-02-16T08:47:09.668Z,15.18
2019-02-16T08:48:20.130Z,19.52
2019-02-16T08:49:49.754Z,19.12
2019-02-16T08:51:03.787Z,17.95
2019-02-16T08:52:32.454Z,19.40
2019-02-16T08:54:00.083Z,19.20
2019-02-16T08:55:22.034Z,26.02
2019-02-16T08:56:54.307Z,19.95
2019-02-16T08:58:11.720Z,19.23
2019-02-16T08:59:29.112Z,35.25
2019-02-16T09:01:01.438Z,27.02
2019-02-16T09:02:24.736Z,27.67
2019-02-16T09:03:54.358Z,18.07
2019-02-16T09:05:23.573Z,16.20
2019-02-16T09:06:37.380Z,27.75
2019-02-16T09:07:58.677Z,17.17
2019-02-16T09:09:20.156Z,18.98
2019-02-16T09:10:50.279Z,19.55
2019-02-16T09:12:08.772Z,14.28
2019-02-16T09:13:23.731Z,16.82
2019-02-16T09:14:36.055Z,16.20
2019-02-16T09:15:52.605Z,17.15
2019-02-16T09:17:08.998Z,17.45
2019-02-16T09:18:31.262Z,15.08
2019-02-16T09:19:51.701Z,18.25
2019-02-16T09:21:14.480Z,14.98
2019-02-16T09:22:35.183Z,12.88
2019-02-16T09:24:04.048Z,14.85
2019-02-16T09:25:27.293Z,15.15
2019-02-16T09:26:48.471Z,14.70
2019-02-16T09:28:17.641Z,15.68
2019-02-16T09:29:39.790Z,13.85
2019-02-16T09:31:11.756Z,14.58
2019-02-16T09:32:37.458Z,9.70
2019-02-16T09:33:54.827Z,15.23
2019-02-16T09:35:23.678Z,16.97
2019-02-16T09:36:34.200Z,14.43
2019-02-16T09:37:57.193Z,14.90
2019-02-16T09:39:16.624Z,14.33
2019-02-16T09:40:48.892Z,13.72
2019-02-16T09:42:14.983Z,17.07
2019-02-16T09:43:31.403Z,14.43
2019-02-16T09:44:51.153Z,14.23
2019-02-16T09:46:12.086Z,14.03
2019-02-16T09:47:40.542Z,10.90
2019-02-16T09:48:51.988Z,10.93
2019-02-16T09:50:30.692Z,10.48
2019-02-16T09:51:47.227Z,13.32
2019-02-16T09:53:03.973Z,11.43
2019-02-16T09:54:27.354Z,13.48
2019-02-16T09:55:48.590Z,14.63
2019-02-16T09:57:08.731Z,28.12
2019-02-16T09:58:37.453Z,22.85
2019-02-16T09:59:51.621Z,16.60
2019-02-16T10:01:13.487Z,18.65
2019-02-16T10:02:28.291Z,16.10
2019-02-16T10:03:57.351Z,15.45
2019-02-16T10:05:10.243Z,14.55
2019-02-16T10:06:41.367Z,14.35
2019-02-16T10:08:04.546Z,14.95
2019-02-16T10:09:14.591Z,14.90
2019-02-16T10:10:37.316Z,14.90
2019-02-16T10:12:04.068Z,14.68
2019-02-16T10:13:34.791Z,14.80
2019-02-16T10:15:01.294Z,14.75
2019-02-16T10:16:13.946Z,14.25
2019-02-16T10:17:30.518Z,14.38
2019-02-16T10:18:44.633Z,13.70
2019-02-16T10:19:56.621Z,12.95
2019-02-16T10:21:10.353Z,14.98
2019-02-16T10:22:25.814Z,15.30
2019-02-16T10:23:44.296Z,13.85
2019-02-16T10:25:15.934Z,14.70
2019-02-16T10:26:50.919Z,14.25
2019-02-16T10:28:06.209Z,12.78
2019-02-16T10:29:23.438Z,13.38
2019-02-16T10:30:37.532Z,12.95
2019-02-16T10:31:59.416Z,12.68
2019-02-16T10:33:11.967Z,14.60
2019-02-16T10:34:34.647Z,14.18
2019-02-16T10:35:45.498Z,14.55
2019-02-16T10:37:01.485Z,14.50
2019-02-16T10:38:24.506Z,14.95
2019-02-16T10:39:47.780Z,14.30
2019-02-16T10:41:16.794Z,15.35
2019-02-16T10:42:33.532Z,16.52
2019-02-16T10:44:09.723Z,15.95
2019-02-16T10:45:29.981Z,15.40
2019-02-16T10:46:48.731Z,16.35
2019-02-16T10:48:01.223Z,16.17
2019-02-16T10:49:17.126Z,15.83
2019-02-16T10:50:52.363Z,14.95
2019-02-16T10:52:02.291Z,15.03
2019-02-16T10:53:24.538Z,15.20
2019-02-16T10:54:35.464Z,11.75
2019-02-16T10:56:01.762Z,15.63
2019-02-16T10:57:33.647Z,10.80
2019-02-16T10:59:05.954Z,11.43
2019-02-16T11:00:31.980Z,12.98
2019-02-16T11:01:42.252Z,14.87
2019-02-16T11:02:58.741Z,11.93
2019-02-16T11:04:21.975Z,13.80
2019-02-16T11:06:00.099Z,13.00
2019-02-16T11:07:23.107Z,12.95
2019-02-16T11:08:49.118Z,12.88
2019-02-16T11:09:58.243Z,13.20
2019-02-16T11:11:39.776Z,16.20
2019-02-16T11:12:56.759Z,15.83
2019-02-16T11:14:14.383Z,15.95
2019-02-16T11:15:34.020Z,23.57
2019-02-16T11:16:55.449Z,22.55
2019-02-16T11:18:18.986Z,18.30
2019-02-16T11:19:36.783Z,16.90
2019-02-16T11:21:07.939Z,15.68
2019-02-16T11:22:17.534Z,16.25
2019-02-16T11:23:58.530Z,17.77
2019-02-16T11:25:14.169Z,14.95
2019-02-16T11:26:29.206Z,13.93
2019-02-16T11:27:42.877Z,14.05
2019-02-16T11:29:11.817Z,15.43
2019-02-16T11:30:25.358Z,14.18
2019-02-16T11:31:51.810Z,14.28
2019-02-16T11:33:19.603Z,15.38
2019-02-16T11:35:01.156Z,14.05
2019-02-16T11:36:14.778Z,13.95
2019-02-16T11:37:50.283Z,13.95
2019-02-16T11:39:13.376Z,14.78
2019-02-16T11:40:30.921Z,13.93
2019-02-16T11:41:45.571Z,9.63
2019-02-16T11:43:01.323Z,14.07
2019-02-16T11:44:27.252Z,13.55
2019-02-16T11:45:56.624Z,14.25
2019-02-16T11:47:22.731Z,14.43
2019-02-16T11:48:48.177Z,13.35
2019-02-16T11:50:11.328Z,14.50
2019-02-16T11:51:25.057Z,13.15
2019-02-16T11:53:06.547Z,13.00
2019-02-16T11:54:20.673Z,12.93
2019-02-16T11:55:43.678Z,13.28
2019-02-16T11:57:08.716Z,13.50
2019-02-16T11:58:32.480Z,13.98
2019-02-16T12:00:13.775Z,13.05
2019-02-16T12:01:40.849Z,13.72
2019-02-16T12:02:54.816Z,16.00
2019-02-16T12:04:04.261Z,16.35
2019-02-16T12:05:26.491Z,14.45
2019-02-16T12:06:37.624Z,14.53
2019-02-16T12:08:01.816Z,19.92
2019-02-16T12:09:37.463Z,19.80
2019-02-16T12:10:51.409Z,16.62
2019-02-16T12:12:29.256Z,17.80
2019-02-16T12:13:51.011Z,14.90
2019-02-16T12:15:02.860Z,13.08
2019-02-16T12:16:34.873Z,13.40
2019-02-16T12:17:57.249Z,13.98
2019-02-16T12:19:25.843Z,13.22
2019-02-16T12:20:54.828Z,12.50
2019-02-16T12:22:32.844Z,13.83
2019-02-16T12:23:43.504Z,12.85
2019-02-16T12:25:09.091Z,12.30
2019-02-16T12:26:22.961Z,12.55
2019-02-16T12:27:36.271Z,12.35
2019-02-16T12:28:55.226Z,12.47
2019-02-16T12:30:07.085Z,13.20
2019-02-16T12:31:31.361Z,12.30
2019-02-16T12:32:53.591Z,12.43
2019-02-16T12:34:26.188Z,13.00
2019-02-16T12:35:41.453Z,12.58
2019-02-16T12:37:10.305Z,12.60
2019-02-16T12:38:22.803Z,12.82
2019-02-16T12:39:44.634Z,12.85
2019-02-16T12:41:01.252Z,13.10
2019-02-16T12:42:23.279Z,13.03
2019-02-16T12:43:56.256Z,13.22
2019-02-16T12:45:28.429Z,13.85
2019-02-16T12:46:44.605Z,12.63
2019-02-16T12:48:00.453Z,13.03
2019-02-16T12:49:26.309Z,13.13
2019-02-16T12:50:59.547Z,12.95
2019-02-16T12:52:22.842Z,12.25
2019-02-16T12:53:44.549Z,12.93
2019-02-16T12:55:14.239Z,13.55
2019-02-16T12:56:32.079Z,13.48
2019-02-16T12:57:44.901Z,13.40
2019-02-16T12:59:05.162Z,13.10
2019-02-16T13:00:26.911Z,14.87
2019-02-16T13:01:40.794Z,21.33
2019-02-16T13:02:55.695Z,19.15
2019-02-16T13:04:31.064Z,13.88
2019-02-16T13:05:50.856Z,15.93
2019-02-16T13:07:10.684Z,14.00
2019-02-16T13:08:20.493Z,14.35
2019-02-16T13:09:36.272Z,15.18
2019-02-16T13:11:15.092Z,14.47
2019-02-16T13:12:25.957Z,14.23
2019-02-16T13:13:44.210Z,12.85
2019-02-16T13:15:16.593Z,12.68
2019-02-16T13:16:27.092Z,12.50
2019-02-16T13:18:00.119Z,12.30
2019-02-16T13:19:22.292Z,11.73
2019-02-16T13:20:35.637Z,12.73
2019-02-16T13:22:04.535Z,12.70
2019-02-16T13:23:33.577Z,13.80
2019-02-16T13:24:49.867Z,12.90
2019-02-16T13:26:03.339Z,12.68
2019-02-16T13:27:26.266Z,12.23
2019-02-16T13:28:40.787Z,12.80
2019-02-16T13:30:01.840Z,12.47
2019-02-16T13:31:20.152Z,12.55
2019-02-16T13:32:53.519Z,14.00
2019-02-16T13:34:25.517Z,13.85
2019-02-16T13:35:47.075Z,13.88
2019-02-16T13:37:09.303Z,12.78
2019-02-16T13:38:35.232Z,13.72
2019-02-16T13:40:07.596Z,12.25
2019-02-16T13:41:30.774Z,11.75
2019-02-16T13:42:52.317Z,11.93
2019-02-16T13:44:06.604Z,11.75
2019-02-16T13:45:38.871Z,13.28
2019-02-16T13:47:08.456Z,11.30
2019-02-16T13:48:23.571Z,11.35
2019-02-16T13:49:42.292Z,11.60
2019-02-16T13:50:55.895Z,11.80
2019-02-16T13:52:24.107Z,11.88
2019-02-16T13:53:47.112Z,11.45
2019-02-16T13:54:56.333Z,12.43
2019-02-16T13:56:18.017Z,11.38
2019-02-16T13:57:41.239Z,11.38
2019-02-16T13:58:57.208Z,11.80
2019-02-16T14:00:38.789Z,10.93
2019-02-16T14:01:53.628Z,11.45
2019-02-16T14:03:03.261Z,11.33
2019-02-16T14:04:19.467Z,11.25
2019-02-16T14:05:39.029Z,12.18
2019-02-16T14:06:50.900Z,11.48
2019-02-16T14:08:12.735Z,11.90
2019-02-16T14:09:26.740Z,12.40
2019-02-16T14:10:49.751Z,12.18
2019-02-16T14:12:22.578Z,11.25
2019-02-16T14:13:48.820Z,11.30
2019-02-16T14:15:14.835Z,11.55
2019-02-16T14:16:37.931Z,11.08
2019-02-16T14:17:51.589Z,11.50
2019-02-16T14:18:55.606Z,12.23
2019-02-16T14:19:59.543Z,12.55
2019-02-16T14:21:03.820Z,11.08
2019-02-16T14:22:08.133Z,12.07
2019-02-16T14:23:12.152Z,11.85
2019-02-16T14:24:18.283Z,12.33
2019-02-16T14:25:27.443Z,11.68
2019-02-16T14:26:31.639Z,11.88
2019-02-16T14:27:36.016Z,11.68
2019-02-16T14:28:40.222Z,11.55
2019-02-16T14:29:44.431Z,12.10
2019-02-16T14:30:49.059Z,12.18
2019-02-16T14:31:53.071Z,11.88
2019-02-16T14:32:57.088Z,12.30
2019-02-16T14:34:01.075Z,12.07
2019-02-16T14:35:06.084Z,11.97
2019-02-16T14:36:09.956Z,11.93
2019-02-16T14:37:31.431Z,12.70
2019-02-16T14:38:40.979Z,12.47
2019-02-16T14:39:44.936Z,19.57
2019-02-16T14:40:49.333Z,18.82
2019-02-16T14:41:53.275Z,13.08
2019-02-16T14:42:57.428Z,12.40
2019-02-16T14:44:01.368Z,12.50
2019-02-16T14:45:05.755Z,12.15
2019-02-16T14:46:10.249Z,12.28
2019-02-16T14:47:14.183Z,11.80
2019-02-16T14:48:18.321Z,12.20
2019-02-16T14:49:22.179Z,12.10
2019-02-16T14:50:26.875Z,12.35
2019-02-16T14:51:30.894Z,11.93
2019-02-16T14:52:35.142Z,12.05
2019-02-16T14:53:39.161Z,12.25
2019-02-16T14:54:43.524Z,13.10
2019-02-16T14:55:53.864Z,12.43
2019-02-16T14:56:53.532Z,11.97
2019-02-16T14:57:57.756Z,11.78
2019-02-16T14:59:01.949Z,12.15
2019-02-16T15:00:06.494Z,11.73
2019-02-16T15:01:10.752Z,11.90
2019-02-16T15:02:15.008Z,12.88
2019-02-16T15:03:19.141Z,13.30
2019-02-16T15:04:23.000Z,13.45
2019-02-16T15:05:27.179Z,13.95
2019-02-16T15:06:31.120Z,14.13
2019-02-16T15:07:35.611Z,14.10
2019-02-16T15:08:39.809Z,13.80
2019-02-16T15:09:44.049Z,13.40
2019-02-16T15:10:48.227Z,12.95
2019-02-16T15:11:52.401Z,13.45
2019-02-16T15:12:56.662Z,14.98
2019-02-16T15:14:00.876Z,12.00
2019-02-16T15:15:05.180Z,12.20
2019-02-16T15:17:07.244Z,12.63
2019-02-16T15:18:11.347Z,12.63
2019-02-16T15:19:15.469Z,12.20
2019-02-16T15:20:19.403Z,11.78
2019-02-16T15:21:23.332Z,11.57